Time;durP1;ratioP1;P1;durP2;ratioP2;P2;SDS_P1;SDS_P2;PMS_P1;PMS_P2;Temp;Humidity;BMP_temperature;BMP_pressure;BME280_temperature;BME280_humidity;BME280_pressure;Samples;Min_cycle;Max_cycle;Signal;HPM_P1;HPM_P2
2022/06/19 00:00:16;;;;;;;;;;;19.70;99.90;;;;;;5092822;28;19914;-58
2022/06/19 00:02:43;;;;;;;;;;;19.60;99.90;;;;;;5092805;28;19951;-59
2022/06/19 00:05:09;;;;;;;;;;;19.60;99.90;;;;;;5092826;28;19924;-58
2022/06/19 00:07:35;;;;;;;;;;;19.50;99.90;;;;;;5092916;28;19908;-56
2022/06/19 00:10:00;;;;;;;;;;;19.50;99.90;;;;;;5092868;28;20276;-57
2022/06/19 00:12:26;;;;;;;;;;;19.40;99.90;;;;;;5092670;28;19908;-58
2022/06/19 00:14:52;;;;;;;;;;;19.40;99.90;;;;;;5092596;28;20513;-58
2022/06/19 00:17:18;;;;;;;;;;;19.30;99.90;;;;;;5092678;28;20310;-60
2022/06/19 00:19:43;;;;;;;;;;;19.30;99.90;;;;;;5092687;28;19923;-57
2022/06/19 00:22:09;;;;;;;;;;;19.20;99.90;;;;;;5092677;28;20007;-58
2022/06/19 00:24:34;;;;;;;;;;;19.20;99.90;;;;;;5095542;28;19919;-58
2022/06/19 00:27:00;;;;;;;;;;;19.10;99.90;;;;;;5096781;28;19908;-58
2022/06/19 00:29:28;;;;;;;;;;;19.20;99.90;;;;;;5096361;28;19912;-57
2022/06/19 00:31:54;;;;;;;;;;;19.20;99.90;;;;;;5096622;28;19916;-58
2022/06/19 00:34:20;;;;;;;;;;;19.20;99.90;;;;;;5096665;28;19908;-58
2022/06/19 00:36:49;;;;;;;;;;;19.10;99.90;;;;;;5097083;28;19958;-58
2022/06/19 00:39:16;;;;;;;;;;;18.90;99.90;;;;;;5096568;28;19935;-58
2022/06/19 00:41:41;;;;;;;;;;;18.80;99.90;;;;;;5096457;28;19908;-57
2022/06/19 00:44:12;;;;;;;;;;;18.80;99.90;;;;;;5096784;28;19912;-58
2022/06/19 00:46:40;;;;;;;;;;;18.80;99.90;;;;;;5096673;28;20264;-58
2022/06/19 00:49:10;;;;;;;;;;;18.80;99.90;;;;;;5096702;28;20375;-57
2022/06/19 00:51:35;;;;;;;;;;;18.70;99.90;;;;;;5096727;28;19918;-58
2022/06/19 00:54:01;;;;;;;;;;;18.70;99.90;;;;;;5096131;28;19908;-58
2022/06/19 00:56:28;;;;;;;;;;;18.50;99.90;;;;;;5094914;28;19908;-58
2022/06/19 00:58:54;;;;;;;;;;;18.50;99.90;;;;;;5096130;28;19922;-57
2022/06/19 01:01:21;;;;;;;;;;;18.60;99.90;;;;;;5096429;28;19912;-57
2022/06/19 01:03:49;;;;;;;;;;;18.40;99.90;;;;;;5096727;28;20348;-59
2022/06/19 01:06:15;;;;;;;;;;;18.40;99.90;;;;;;5095796;28;19916;-57
2022/06/19 01:08:40;;;;;;;;;;;18.40;99.90;;;;;;5095945;28;19912;-57
2022/06/19 01:11:07;;;;;;;;;;;18.30;99.90;;;;;;5094594;28;20381;-57
2022/06/19 01:13:33;;;;;;;;;;;18.30;99.90;;;;;;5096001;28;19908;-58
2022/06/19 01:16:00;;;;;;;;;;;18.30;99.90;;;;;;5095919;28;19946;-57
2022/06/19 01:18:26;;;;;;;;;;;18.30;99.90;;;;;;5095765;28;19912;-57
2022/06/19 01:20:56;;;;;;;;;;;18.30;99.90;;;;;;5095442;28;19915;-57
2022/06/19 01:23:42;;;;;;;;;;;18.20;99.90;;;;;;5095811;28;20010;-57
2022/06/19 01:26:09;;;;;;;;;;;18.20;99.90;;;;;;5094789;28;20433;-60
2022/06/19 01:31:21;;;;;;;;;;;18.00;99.90;;;;;;5095401;28;19985;-57
2022/06/19 01:33:47;;;;;;;;;;;17.90;99.90;;;;;;5095926;28;19908;-57
2022/06/19 01:36:14;;;;;;;;;;;17.90;99.90;;;;;;5094174;28;19961;-58
2022/06/19 01:38:41;;;;;;;;;;;17.90;99.90;;;;;;5095369;28;19912;-57
2022/06/19 01:41:13;;;;;;;;;;;17.80;99.90;;;;;;5095394;28;19912;-56
2022/06/19 01:43:39;;;;;;;;;;;17.90;99.90;;;;;;5095030;28;19912;-57
2022/06/19 01:46:05;;;;;;;;;;;17.90;99.90;;;;;;5095327;28;20291;-57
2022/06/19 01:48:31;;;;;;;;;;;17.90;99.90;;;;;;5096019;28;19919;-57
2022/06/19 01:50:58;;;;;;;;;;;17.90;99.90;;;;;;5096510;28;19908;-57
2022/06/19 01:53:29;;;;;;;;;;;17.80;99.90;;;;;;5095776;28;19975;-58
2022/06/19 01:55:55;;;;;;;;;;;17.80;99.90;;;;;;5094900;28;19915;-57
2022/06/19 01:58:22;;;;;;;;;;;17.70;99.90;;;;;;5094587;28;19908;-57
2022/06/19 02:00:48;;;;;;;;;;;17.70;99.90;;;;;;5094996;28;19908;-57
2022/06/19 02:03:29;;;;;;;;;;;17.70;99.90;;;;;;5094685;28;19912;-57
2022/06/19 02:05:56;;;;;;;;;;;17.70;99.90;;;;;;5094607;28;19912;-57
2022/06/19 02:08:22;;;;;;;;;;;17.60;99.90;;;;;;5094397;28;19951;-58
2022/06/19 02:10:48;;;;;;;;;;;17.60;99.90;;;;;;5094727;28;19947;-57
2022/06/19 02:13:15;;;;;;;;;;;17.60;99.90;;;;;;5094248;28;19908;-57
2022/06/19 02:15:42;;;;;;;;;;;17.60;99.90;;;;;;5094517;28;19958;-59
2022/06/19 02:18:09;;;;;;;;;;;17.50;99.90;;;;;;5094561;28;20419;-58
2022/06/19 02:20:34;;;;;;;;;;;17.50;99.90;;;;;;5094938;28;19916;-57
2022/06/19 02:23:01;;;;;;;;;;;17.50;99.90;;;;;;5094761;28;20357;-58
2022/06/19 02:25:26;;;;;;;;;;;17.40;99.90;;;;;;5094265;28;19966;-57
2022/06/19 02:27:52;;;;;;;;;;;17.30;99.90;;;;;;5094610;28;19916;-58
2022/06/19 02:30:18;;;;;;;;;;;17.30;99.90;;;;;;5094465;28;19912;-59
2022/06/19 02:32:45;;;;;;;;;;;17.20;99.90;;;;;;5094544;28;20258;-58
2022/06/19 02:35:16;;;;;;;;;;;17.10;99.90;;;;;;5093981;28;19916;-58
2022/06/19 02:37:44;;;;;;;;;;;17.10;99.90;;;;;;5094253;28;19955;-58
2022/06/19 02:40:19;;;;;;;;;;;17.00;99.90;;;;;;5094646;28;20351;-58
2022/06/19 02:42:46;;;;;;;;;;;17.00;99.90;;;;;;5092695;28;19912;-58
2022/06/19 02:45:16;;;;;;;;;;;17.00;99.90;;;;;;5093464;28;19909;-59
2022/06/19 02:47:42;;;;;;;;;;;17.10;99.90;;;;;;5094184;28;19915;-57
2022/06/19 02:50:09;;;;;;;;;;;17.20;99.90;;;;;;5094175;28;19919;-58
2022/06/19 02:52:35;;;;;;;;;;;17.20;99.90;;;;;;5094606;28;20423;-58
2022/06/19 02:55:00;;;;;;;;;;;17.10;99.90;;;;;;5093427;28;19947;-56
2022/06/19 02:57:26;;;;;;;;;;;17.10;99.90;;;;;;5093511;28;19908;-58
2022/06/19 02:59:53;;;;;;;;;;;17.20;99.90;;;;;;5093789;28;19912;-57
2022/06/19 03:02:18;;;;;;;;;;;17.10;99.90;;;;;;5093809;28;20396;-58
2022/06/19 03:04:46;;;;;;;;;;;17.10;99.90;;;;;;5093354;28;19912;-58
2022/06/19 03:07:12;;;;;;;;;;;17.10;99.90;;;;;;5093512;28;19908;-57
2022/06/19 03:09:37;;;;;;;;;;;16.90;99.90;;;;;;5093724;28;19919;-57
2022/06/19 03:12:03;;;;;;;;;;;16.90;99.90;;;;;;5093016;28;19915;-57
2022/06/19 03:14:29;;;;;;;;;;;16.80;99.90;;;;;;5093155;28;19908;-57
2022/06/19 03:16:54;;;;;;;;;;;16.80;99.90;;;;;;5093346;28;19970;-58
2022/06/19 03:19:20;;;;;;;;;;;16.80;99.90;;;;;;5092686;28;19959;-58
2022/06/19 03:21:45;;;;;;;;;;;16.70;99.90;;;;;;5093413;28;20365;-57
2022/06/19 03:24:11;;;;;;;;;;;16.80;99.90;;;;;;5092979;28;19962;-59
2022/06/19 03:26:36;;;;;;;;;;;16.70;99.90;;;;;;5092860;28;19934;-58
2022/06/19 03:29:02;;;;;;;;;;;16.70;99.90;;;;;;5093426;28;20006;-57
2022/06/19 03:31:28;;;;;;;;;;;16.70;99.90;;;;;;5093425;28;20391;-57
2022/06/19 03:33:54;;;;;;;;;;;16.70;99.90;;;;;;5093566;28;19907;-57
2022/06/19 03:36:20;;;;;;;;;;;16.70;99.90;;;;;;5093266;28;19957;-57
2022/06/19 03:38:45;;;;;;;;;;;16.70;99.90;;;;;;5092966;28;19927;-56
2022/06/19 03:41:11;;;;;;;;;;;16.70;99.90;;;;;;5093100;28;19908;-57
2022/06/19 03:43:37;;;;;;;;;;;16.90;99.90;;;;;;5092529;28;19914;-57
2022/06/19 03:46:05;;;;;;;;;;;16.80;99.90;;;;;;5093024;28;20279;-57
2022/06/19 03:48:31;;;;;;;;;;;16.80;99.90;;;;;;5093127;28;19934;-56
2022/06/19 03:50:57;;;;;;;;;;;16.90;99.90;;;;;;5093188;28;19916;-57
2022/06/19 03:53:22;;;;;;;;;;;16.80;99.90;;;;;;5093193;28;19973;-57
2022/06/19 03:55:48;;;;;;;;;;;16.90;99.90;;;;;;5093189;28;19908;-57
2022/06/19 03:58:14;;;;;;;;;;;16.90;99.90;;;;;;5093809;28;19908;-57
2022/06/19 04:00:39;;;;;;;;;;;16.90;99.90;;;;;;5097330;28;19938;-57
2022/06/19 04:03:05;;;;;;;;;;;16.90;99.90;;;;;;5097266;28;20000;-57
2022/06/19 04:05:31;;;;;;;;;;;16.90;99.90;;;;;;5097258;28;19908;-57
2022/06/19 04:07:57;;;;;;;;;;;16.80;99.90;;;;;;5097156;28;19908;-57
2022/06/19 04:10:22;;;;;;;;;;;16.90;99.90;;;;;;5097175;28;19912;-57
2022/06/19 04:12:48;;;;;;;;;;;16.90;99.90;;;;;;5097020;28;19908;-58
2022/06/19 04:15:14;;;;;;;;;;;16.90;99.90;;;;;;5096328;28;19919;-57
2022/06/19 04:17:39;;;;;;;;;;;16.90;99.90;;;;;;5096669;28;19908;-57
2022/06/19 04:20:07;;;;;;;;;;;16.90;99.90;;;;;;5096596;28;19941;-56
2022/06/19 04:22:33;;;;;;;;;;;16.90;99.90;;;;;;5096468;28;20041;-57
2022/06/19 04:24:58;;;;;;;;;;;16.90;99.90;;;;;;5096113;28;20352;-58
2022/06/19 04:27:24;;;;;;;;;;;17.00;99.90;;;;;;5096523;28;19915;-57
2022/06/19 04:29:49;;;;;;;;;;;17.10;99.90;;;;;;5096649;28;19912;-58
2022/06/19 04:32:15;;;;;;;;;;;17.10;99.90;;;;;;5096416;28;19920;-57
2022/06/19 04:34:41;;;;;;;;;;;17.10;99.90;;;;;;5096116;28;20373;-57
2022/06/19 04:37:06;;;;;;;;;;;17.20;99.90;;;;;;5096031;28;19931;-57
2022/06/19 04:39:33;;;;;;;;;;;17.20;99.90;;;;;;5096546;28;19912;-57
2022/06/19 04:41:59;;;;;;;;;;;17.20;99.90;;;;;;5096527;28;19908;-57
2022/06/19 04:44:25;;;;;;;;;;;17.30;99.90;;;;;;5096704;28;19908;-57
2022/06/19 04:46:50;;;;;;;;;;;17.20;99.90;;;;;;5096337;28;20315;-57
2022/06/19 04:49:16;;;;;;;;;;;17.10;99.90;;;;;;5096030;28;20326;-58
2022/06/19 04:51:43;;;;;;;;;;;17.20;99.90;;;;;;5096510;28;19908;-58
2022/06/19 04:54:08;;;;;;;;;;;17.20;99.90;;;;;;5095616;28;19916;-57
2022/06/19 04:56:34;;;;;;;;;;;17.20;99.90;;;;;;5095677;28;19915;-57
2022/06/19 04:59:00;;;;;;;;;;;17.20;99.90;;;;;;5096217;28;19916;-57
2022/06/19 05:01:27;;;;;;;;;;;17.20;99.90;;;;;;5095976;28;19927;-57
2022/06/19 05:03:54;;;;;;;;;;;17.40;99.90;;;;;;5095667;28;19908;-57
2022/06/19 05:06:20;;;;;;;;;;;17.50;99.90;;;;;;5096283;28;19908;-57
2022/06/19 05:08:45;;;;;;;;;;;17.60;99.90;;;;;;5098384;28;19989;-57
2022/06/19 05:11:11;;;;;;;;;;;17.70;99.90;;;;;;5098066;28;19912;-57
2022/06/19 05:13:37;;;;;;;;;;;17.70;99.90;;;;;;5095935;28;19908;-60
2022/06/19 05:16:07;;;;;;;;;;;17.70;99.90;;;;;;5095192;28;19924;-57
2022/06/19 05:18:34;;;;;;;;;;;17.70;99.90;;;;;;5095718;28;19915;-57
2022/06/19 05:21:01;;;;;;;;;;;17.80;99.90;;;;;;5095798;28;20021;-57
2022/06/19 05:23:27;;;;;;;;;;;17.80;99.90;;;;;;5095570;28;19912;-57
2022/06/19 05:26:07;;;;;;;;;;;17.80;99.90;;;;;;5095542;28;20280;-57
2022/06/19 05:28:33;;;;;;;;;;;17.80;99.90;;;;;;5095693;28;19908;-57
2022/06/19 05:30:59;;;;;;;;;;;17.60;99.90;;;;;;5095615;28;19908;-57
2022/06/19 05:33:25;;;;;;;;;;;17.30;99.90;;;;;;5095218;28;19908;-57
2022/06/19 05:35:51;;;;;;;;;;;16.90;99.90;;;;;;5095574;28;19914;-58
2022/06/19 05:38:17;;;;;;;;;;;16.90;99.90;;;;;;5095945;28;20012;-57
2022/06/19 05:40:42;;;;;;;;;;;16.70;99.90;;;;;;5094800;28;20273;-56
2022/06/19 05:43:08;;;;;;;;;;;16.70;99.90;;;;;;5093654;28;19965;-57
2022/06/19 05:45:34;;;;;;;;;;;16.90;99.90;;;;;;5094550;28;19908;-57
2022/06/19 05:47:59;;;;;;;;;;;17.00;99.90;;;;;;5094751;28;19919;-57
2022/06/19 05:50:25;;;;;;;;;;;16.80;99.90;;;;;;5094832;28;19909;-59
2022/06/19 05:52:50;;;;;;;;;;;16.60;99.90;;;;;;5094712;28;20372;-57
2022/06/19 05:55:16;;;;;;;;;;;16.50;99.90;;;;;;5094725;28;20296;-57
2022/06/19 05:57:41;;;;;;;;;;;16.40;99.90;;;;;;5094627;28;19909;-57
2022/06/19 06:00:10;;;;;;;;;;;16.40;99.90;;;;;;5094693;28;20415;-58
2022/06/19 06:02:36;;;;;;;;;;;16.50;99.90;;;;;;5095099;28;20006;-57
2022/06/19 06:05:02;;;;;;;;;;;16.50;99.90;;;;;;5094607;28;20004;-57
2022/06/19 06:07:28;;;;;;;;;;;16.40;99.90;;;;;;5094314;28;19908;-58
2022/06/19 06:09:53;;;;;;;;;;;16.30;99.90;;;;;;5094770;28;20003;-58
2022/06/19 06:12:19;;;;;;;;;;;16.10;99.90;;;;;;5093265;28;19908;-62
2022/06/19 06:14:44;;;;;;;;;;;16.00;99.90;;;;;;5092326;28;19966;-65
2022/06/19 06:17:10;;;;;;;;;;;15.80;99.90;;;;;;5092970;28;20002;-64
2022/06/19 06:19:35;;;;;;;;;;;15.60;99.90;;;;;;5093184;28;19924;-64
2022/06/19 06:22:02;;;;;;;;;;;15.40;99.90;;;;;;5093126;28;20367;-64
2022/06/19 06:24:27;;;;;;;;;;;15.10;99.90;;;;;;5093205;28;19912;-63
2022/06/19 06:26:53;;;;;;;;;;;14.80;99.90;;;;;;5091838;28;19985;-63
2022/06/19 06:29:20;;;;;;;;;;;14.70;99.90;;;;;;5093293;28;19909;-63
2022/06/19 06:31:46;;;;;;;;;;;14.60;99.90;;;;;;5093034;28;19912;-64
2022/06/19 06:34:11;;;;;;;;;;;14.60;99.90;;;;;;5092842;28;19914;-64
2022/06/19 06:36:37;;;;;;;;;;;14.50;99.90;;;;;;5092664;28;19908;-63
2022/06/19 06:39:03;;;;;;;;;;;14.50;99.90;;;;;;5092841;28;20598;-62
2022/06/19 06:41:28;;;;;;;;;;;14.50;99.90;;;;;;5092903;28;19922;-61
2022/06/19 06:43:54;;;;;;;;;;;14.70;99.90;;;;;;5092770;28;20395;-62
2022/06/19 06:46:21;;;;;;;;;;;14.80;99.90;;;;;;5092771;28;19915;-61
2022/06/19 06:48:47;;;;;;;;;;;14.80;99.90;;;;;;5092536;28;19912;-60
2022/06/19 06:51:14;;;;;;;;;;;14.60;99.90;;;;;;5092651;28;19938;-59
2022/06/19 06:53:40;;;;;;;;;;;14.60;99.90;;;;;;5092177;28;19908;-58
2022/06/19 06:56:05;;;;;;;;;;;14.60;99.90;;;;;;5092720;28;20000;-58
2022/06/19 06:58:31;;;;;;;;;;;14.70;99.90;;;;;;5092619;28;20304;-58
2022/06/19 07:00:57;;;;;;;;;;;14.70;99.90;;;;;;5092747;28;19908;-58
2022/06/19 07:03:22;;;;;;;;;;;14.80;99.90;;;;;;5093188;28;20258;-58
2022/06/19 07:05:48;;;;;;;;;;;15.10;99.90;;;;;;5092678;28;19943;-57
2022/06/19 07:08:13;;;;;;;;;;;15.20;99.90;;;;;;5092304;28;19912;-59
2022/06/19 07:10:39;;;;;;;;;;;15.50;99.90;;;;;;5093386;28;20014;-59
2022/06/19 07:13:05;;;;;;;;;;;15.80;99.90;;;;;;5092598;28;19954;-58
2022/06/19 07:15:30;;;;;;;;;;;15.80;99.90;;;;;;5092242;28;19961;-58
2022/06/19 07:17:56;;;;;;;;;;;15.70;99.90;;;;;;5091526;28;19919;-58
2022/06/19 07:20:21;;;;;;;;;;;16.00;99.90;;;;;;5092785;28;19913;-58
2022/06/19 07:22:47;;;;;;;;;;;16.00;99.90;;;;;;5092658;28;20377;-58
2022/06/19 07:25:19;;;;;;;;;;;16.00;99.90;;;;;;5092031;28;19909;-58
2022/06/19 07:27:45;;;;;;;;;;;16.10;99.90;;;;;;5092477;28;19912;-58
2022/06/19 07:30:14;;;;;;;;;;;16.10;99.90;;;;;;5092255;28;19949;-58
2022/06/19 07:32:39;;;;;;;;;;;16.20;99.90;;;;;;5091716;28;20510;-58
2022/06/19 07:35:05;;;;;;;;;;;16.20;99.90;;;;;;5092536;28;19965;-58
2022/06/19 07:37:30;;;;;;;;;;;16.20;99.90;;;;;;5092257;28;19946;-58
2022/06/19 07:39:56;;;;;;;;;;;16.30;99.90;;;;;;5092295;28;20003;-58
2022/06/19 07:42:22;;;;;;;;;;;16.20;99.90;;;;;;5092400;28;19919;-57
2022/06/19 07:44:47;;;;;;;;;;;16.00;99.90;;;;;;5092098;28;20318;-58
2022/06/19 07:50:09;;;;;;;;;;;16.00;99.90;;;;;;5092116;28;19915;-58
2022/06/19 07:52:38;;;;;;;;;;;16.10;99.90;;;;;;5091609;28;19915;-58
2022/06/19 07:55:05;;;;;;;;;;;16.10;99.90;;;;;;5090063;28;20288;-58
2022/06/19 07:57:30;;;;;;;;;;;16.20;99.90;;;;;;5091741;28;20337;-58
2022/06/19 07:59:55;;;;;;;;;;;16.30;99.90;;;;;;5091403;28;19955;-58
2022/06/19 08:02:24;;;;;;;;;;;16.40;99.90;;;;;;5091384;28;19914;-58
2022/06/19 08:04:50;;;;;;;;;;;16.60;99.90;;;;;;5090176;28;19912;-58
2022/06/19 08:07:15;;;;;;;;;;;16.90;99.90;;;;;;5091943;28;19908;-57
2022/06/19 08:09:41;;;;;;;;;;;17.10;99.90;;;;;;5092334;28;19908;-58
2022/06/19 08:12:07;;;;;;;;;;;17.50;99.90;;;;;;5091452;28;19912;-58
2022/06/19 08:14:33;;;;;;;;;;;18.00;99.90;;;;;;5091024;28;19961;-58
2022/06/19 08:16:58;;;;;;;;;;;18.70;99.90;;;;;;5091370;28;20527;-58
2022/06/19 08:19:24;;;;;;;;;;;19.00;99.90;;;;;;5091338;28;19912;-58
2022/06/19 08:21:49;;;;;;;;;;;19.20;99.90;;;;;;5091697;28;20454;-58
2022/06/19 08:24:15;;;;;;;;;;;18.80;99.90;;;;;;5091300;28;19908;-58
2022/06/19 08:26:40;;;;;;;;;;;18.20;99.90;;;;;;5091176;28;19977;-58
2022/06/19 08:29:06;;;;;;;;;;;17.70;99.90;;;;;;5091372;28;20404;-58
2022/06/19 08:31:32;;;;;;;;;;;17.70;99.90;;;;;;5091686;28;19908;-58
2022/06/19 08:33:58;;;;;;;;;;;17.90;99.90;;;;;;5091892;28;20428;-58
2022/06/19 08:36:26;;;;;;;;;;;18.10;99.90;;;;;;5091767;28;19991;-58
2022/06/19 08:38:54;;;;;;;;;;;18.10;99.90;;;;;;5091711;28;19913;-58
2022/06/19 08:41:41;;;;;;;;;;;18.60;99.90;;;;;;5091753;28;19908;-58
2022/06/19 08:44:20;;;;;;;;;;;19.00;99.90;;;;;;5091760;28;20314;-58
2022/06/19 08:47:08;;;;;;;;;;;19.80;99.90;;;;;;5094906;28;19916;-58
2022/06/19 08:49:35;;;;;;;;;;;20.10;99.90;;;;;;5095021;28;20313;-58
2022/06/19 08:52:04;;;;;;;;;;;19.70;99.90;;;;;;5095511;28;19931;-59
2022/06/19 08:54:45;;;;;;;;;;;19.70;99.90;;;;;;5094836;28;19908;-58
2022/06/19 08:57:28;;;;;;;;;;;19.50;99.90;;;;;;5094350;28;19908;-58
2022/06/19 09:00:06;;;;;;;;;;;19.60;99.90;;;;;;5093424;28;19951;-58
2022/06/19 09:02:46;;;;;;;;;;;19.20;99.90;;;;;;5094600;28;19922;-58
2022/06/19 09:05:36;;;;;;;;;;;18.80;99.90;;;;;;5094848;28;20276;-58
2022/06/19 09:08:02;;;;;;;;;;;18.70;99.90;;;;;;5094314;28;19908;-58
2022/06/19 09:10:30;;;;;;;;;;;18.60;99.90;;;;;;5094140;28;19931;-58
2022/06/19 09:12:56;;;;;;;;;;;18.40;99.90;;;;;;5093932;28;19916;-58
2022/06/19 09:15:44;;;;;;;;;;;18.50;99.90;;;;;;5094907;28;19908;-58
2022/06/19 09:18:19;;;;;;;;;;;18.40;99.90;;;;;;5085659;28;19956;-58
2022/06/19 09:20:50;;;;;;;;;;;18.50;99.90;;;;;;5095002;28;20257;-58
2022/06/19 09:23:37;;;;;;;;;;;18.50;99.90;;;;;;5094077;28;20283;-58
2022/06/19 09:26:08;;;;;;;;;;;18.60;99.90;;;;;;5094242;28;20371;-58
2022/06/19 09:28:33;;;;;;;;;;;18.30;99.90;;;;;;5094330;28;20376;-58
2022/06/19 09:31:04;;;;;;;;;;;18.30;99.90;;;;;;5094508;28;19908;-58
2022/06/19 09:33:35;;;;;;;;;;;18.40;99.90;;;;;;5093275;28;19947;-57
2022/06/19 09:36:01;;;;;;;;;;;18.40;99.90;;;;;;5093671;28;20358;-57
2022/06/19 09:38:53;;;;;;;;;;;18.60;99.90;;;;;;5093823;28;19976;-57
2022/06/19 09:41:21;;;;;;;;;;;18.60;99.90;;;;;;5070182;28;19912;-58
2022/06/19 09:43:59;;;;;;;;;;;18.70;99.90;;;;;;5095977;28;20370;-58
2022/06/19 09:46:28;;;;;;;;;;;19.10;99.90;;;;;;5097099;28;19942;-59
2022/06/19 09:49:04;;;;;;;;;;;19.50;99.90;;;;;;5091191;28;19913;-58
2022/06/19 09:51:34;;;;;;;;;;;19.80;99.90;;;;;;5096055;28;19908;-58
2022/06/19 09:54:03;;;;;;;;;;;19.60;99.90;;;;;;5099743;28;19919;-58
2022/06/19 09:56:28;;;;;;;;;;;19.60;99.90;;;;;;5093398;28;20249;-57
2022/06/19 09:58:54;;;;;;;;;;;19.40;99.90;;;;;;5092939;28;19924;-58
2022/06/19 10:01:20;;;;;;;;;;;19.50;99.90;;;;;;5090136;28;19912;-58
2022/06/19 10:04:03;;;;;;;;;;;19.70;99.90;;;;;;5094421;28;20002;-58
2022/06/19 10:06:39;;;;;;;;;;;19.70;99.90;;;;;;5091149;28;19944;-57
2022/06/19 10:09:22;;;;;;;;;;;20.60;99.90;;;;;;5101591;28;19907;-58
2022/06/19 10:11:48;;;;;;;;;;;21.60;99.90;;;;;;5113616;28;19938;-58
2022/06/19 10:14:16;;;;;;;;;;;22.50;99.90;;;;;;5107920;28;20337;-57
2022/06/19 10:16:47;;;;;;;;;;;23.00;99.90;;;;;;5091759;28;19919;-55
2022/06/19 10:19:22;;;;;;;;;;;22.90;99.90;;;;;;5098731;28;19922;-56
2022/06/19 10:22:15;;;;;;;;;;;23.40;99.90;;;;;;5101926;28;19915;-56
2022/06/19 10:24:41;;;;;;;;;;;22.90;99.90;;;;;;5109920;28;20329;-56
2022/06/19 10:27:39;;;;;;;;;;;22.80;99.90;;;;;;5094871;28;20018;-56
2022/06/19 10:30:10;;;;;;;;;;;23.80;99.90;;;;;;5049993;28;19954;-56
2022/06/19 10:32:44;;;;;;;;;;;24.20;99.80;;;;;;5078310;28;19919;-56
2022/06/19 10:35:25;;;;;;;;;;;23.20;99.90;;;;;;5112557;28;19930;-56
2022/06/19 10:38:13;;;;;;;;;;;22.70;99.90;;;;;;5112098;28;20273;-56
2022/06/19 10:40:39;;;;;;;;;;;22.90;99.90;;;;;;5112747;28;19918;-56
2022/06/19 10:43:09;;;;;;;;;;;22.80;99.90;;;;;;5108613;28;19908;-56
2022/06/19 10:45:35;;;;;;;;;;;22.30;99.90;;;;;;5088227;28;19987;-57
2022/06/19 10:48:19;;;;;;;;;;;22.30;99.90;;;;;;5075042;28;19995;-57
2022/06/19 10:51:14;;;;;;;;;;;22.60;99.90;;;;;;5072321;28;19916;-57
2022/06/19 10:53:51;;;;;;;;;;;22.80;99.90;;;;;;5034802;28;19909;-57
2022/06/19 10:56:28;;;;;;;;;;;22.60;99.90;;;;;;5072517;28;19919;-57
2022/06/19 10:58:54;;;;;;;;;;;22.50;99.90;;;;;;5070548;28;20288;-56
2022/06/19 11:04:11;;;;;;;;;;;22.00;99.90;;;;;;5072069;28;19919;-56
2022/06/19 11:06:52;;;;;;;;;;;22.50;99.90;;;;;;5071968;28;19973;-56
2022/06/19 11:09:24;;;;;;;;;;;22.60;99.90;;;;;;5071928;28;19914;-56
2022/06/19 11:11:52;;;;;;;;;;;21.80;99.90;;;;;;5070800;28;19986;-56
2022/06/19 11:14:35;;;;;;;;;;;21.10;99.90;;;;;;5071719;28;19951;-57
2022/06/19 11:17:12;;;;;;;;;;;20.90;99.90;;;;;;5071485;28;20300;-56
2022/06/19 11:19:45;;;;;;;;;;;21.10;99.90;;;;;;5071559;28;20368;-56
2022/06/19 11:22:34;;;;;;;;;;;20.90;99.90;;;;;;5071623;28;19919;-56
2022/06/19 11:25:30;;;;;;;;;;;20.80;99.90;;;;;;5062169;28;19915;-56
2022/06/19 11:28:00;;;;;;;;;;;20.70;99.90;;;;;;5057055;28;19909;-56
2022/06/19 11:30:30;;;;;;;;;;;20.60;99.90;;;;;;5071716;28;19909;-56
2022/06/19 11:32:56;;;;;;;;;;;20.60;99.90;;;;;;5071462;28;19909;-56
2022/06/19 11:35:22;;;;;;;;;;;20.40;99.90;;;;;;5072023;28;19955;-57
2022/06/19 11:37:57;;;;;;;;;;;20.40;99.90;;;;;;5072510;28;19950;-57
2022/06/19 11:40:30;;;;;;;;;;;20.70;99.90;;;;;;5071796;28;19919;-57
2022/06/19 11:42:58;;;;;;;;;;;20.80;99.90;;;;;;5071820;28;19998;-57
2022/06/19 11:45:29;;;;;;;;;;;21.00;99.90;;;;;;5071983;28;19915;-56
2022/06/19 11:47:55;;;;;;;;;;;20.80;99.90;;;;;;5072261;28;20002;-58
2022/06/19 11:50:33;;;;;;;;;;;20.20;99.90;;;;;;5071755;28;19939;-58
2022/06/19 11:53:10;;;;;;;;;;;20.20;99.90;;;;;;5071648;28;19912;-57
2022/06/19 11:55:38;;;;;;;;;;;20.00;99.90;;;;;;5071726;28;19931;-57
2022/06/19 11:58:22;;;;;;;;;;;20.00;99.90;;;;;;5072007;28;19912;-59
2022/06/19 12:01:01;;;;;;;;;;;20.20;99.90;;;;;;5072021;28;19962;-59
2022/06/19 12:03:28;;;;;;;;;;;20.10;99.90;;;;;;5072069;28;19912;-63
2022/06/19 12:06:01;;;;;;;;;;;20.00;99.90;;;;;;5071993;28;19915;-62
2022/06/19 12:08:47;;;;;;;;;;;19.70;99.90;;;;;;5071691;28;20380;-61
2022/06/19 12:11:12;;;;;;;;;;;19.60;99.90;;;;;;5071598;28;19909;-61
2022/06/19 12:13:39;;;;;;;;;;;19.50;99.90;;;;;;5071341;28;20003;-60
2022/06/19 12:16:18;;;;;;;;;;;19.50;99.90;;;;;;5071354;28;20365;-59
2022/06/19 12:18:44;;;;;;;;;;;19.40;99.90;;;;;;5071180;28;19916;-58
2022/06/19 12:21:17;;;;;;;;;;;20.00;99.90;;;;;;5075494;28;19912;-58
2022/06/19 12:23:48;;;;;;;;;;;20.40;99.90;;;;;;5074535;28;19908;-58
2022/06/19 12:26:20;;;;;;;;;;;20.80;99.90;;;;;;5075290;28;19909;-58
2022/06/19 12:28:52;;;;;;;;;;;20.90;99.90;;;;;;5074887;28;19943;-57
2022/06/19 12:31:19;;;;;;;;;;;20.70;99.90;;;;;;5075225;28;19950;-58
2022/06/19 12:33:53;;;;;;;;;;;20.60;99.90;;;;;;5075189;28;19908;-57
2022/06/19 12:36:20;;;;;;;;;;;20.40;99.90;;;;;;5075044;28;19909;-58
2022/06/19 12:38:46;;;;;;;;;;;20.20;99.90;;;;;;5075178;28;19912;-58
2022/06/19 12:41:12;;;;;;;;;;;20.20;99.90;;;;;;5073835;28;19920;-57
2022/06/19 12:43:51;;;;;;;;;;;20.10;99.90;;;;;;5075089;28;19909;-57
2022/06/19 12:46:32;;;;;;;;;;;19.70;99.90;;;;;;5074518;28;20384;-56
2022/06/19 12:49:00;;;;;;;;;;;19.50;99.90;;;;;;5074687;28;19919;-57
2022/06/19 12:51:34;;;;;;;;;;;19.10;99.90;;;;;;5075102;28;20288;-58
2022/06/19 12:54:20;;;;;;;;;;;19.00;99.90;;;;;;5074495;28;19915;-58
2022/06/19 12:56:46;;;;;;;;;;;18.90;99.90;;;;;;5072530;28;19912;-57
2022/06/19 12:59:20;;;;;;;;;;;18.70;99.90;;;;;;5074273;28;19965;-57
2022/06/19 13:01:53;;;;;;;;;;;18.80;99.90;;;;;;5074646;28;19915;-57
2022/06/19 13:04:37;;;;;;;;;;;18.80;99.90;;;;;;5074488;28;20003;-58
2022/06/19 13:07:03;;;;;;;;;;;18.70;99.90;;;;;;5074070;28;20376;-57
2022/06/19 13:09:46;;;;;;;;;;;18.70;99.90;;;;;;5074466;28;19908;-57
2022/06/19 13:12:34;;;;;;;;;;;18.70;99.90;;;;;;5074533;28;19972;-58
2022/06/19 13:15:18;;;;;;;;;;;18.50;99.90;;;;;;5074406;28;20292;-59
2022/06/19 13:18:02;;;;;;;;;;;18.30;99.90;;;;;;5074479;28;20350;-58
2022/06/19 13:20:27;;;;;;;;;;;18.20;99.90;;;;;;5074156;28;20007;-59
2022/06/19 13:23:05;;;;;;;;;;;18.30;99.90;;;;;;5074172;28;20001;-57
2022/06/19 13:25:37;;;;;;;;;;;18.20;99.90;;;;;;5073159;28;19908;-58
2022/06/19 13:28:03;;;;;;;;;;;18.10;99.90;;;;;;5073877;28;19915;-57
2022/06/19 13:30:44;;;;;;;;;;;18.00;99.90;;;;;;5073567;28;19908;-57
2022/06/19 13:33:12;;;;;;;;;;;17.80;99.90;;;;;;5073683;28;19908;-57
2022/06/19 13:35:41;;;;;;;;;;;17.70;99.90;;;;;;5073341;28;19908;-57
2022/06/19 13:38:25;;;;;;;;;;;17.70;99.90;;;;;;5074030;28;19912;-58
2022/06/19 13:40:52;;;;;;;;;;;17.90;99.90;;;;;;5073932;28;19917;-58
2022/06/19 13:43:37;;;;;;;;;;;18.20;99.90;;;;;;5073928;28;19912;-58
2022/06/19 13:46:06;;;;;;;;;;;18.60;99.90;;;;;;5073437;28;19908;-58
2022/06/19 13:48:47;;;;;;;;;;;19.00;99.90;;;;;;5073501;28;19908;-58
2022/06/19 13:51:21;;;;;;;;;;;19.00;99.90;;;;;;5073625;28;19955;-57
2022/06/19 13:54:05;;;;;;;;;;;18.80;99.90;;;;;;5073054;28;20342;-57
2022/06/19 13:56:44;;;;;;;;;;;18.90;99.90;;;;;;5073565;28;19936;-57
2022/06/19 13:59:28;;;;;;;;;;;18.90;99.90;;;;;;5072923;28;19913;-57
2022/06/19 14:02:04;;;;;;;;;;;19.10;99.90;;;;;;5072702;28;19908;-57
2022/06/19 14:04:50;;;;;;;;;;;19.20;99.90;;;;;;5073463;28;19920;-58
2022/06/19 14:07:33;;;;;;;;;;;19.40;99.90;;;;;;5073784;28;20365;-58
2022/06/19 14:10:07;;;;;;;;;;;19.10;99.90;;;;;;5073120;28;19948;-57
2022/06/19 14:12:36;;;;;;;;;;;18.80;99.90;;;;;;5073289;28;19958;-58
2022/06/19 14:15:25;;;;;;;;;;;19.20;99.90;;;;;;5074933;28;19968;-57
2022/06/19 14:18:01;;;;;;;;;;;19.60;99.90;;;;;;5081062;28;20022;-58
2022/06/19 14:20:45;;;;;;;;;;;20.20;99.90;;;;;;5089329;28;19916;-59
2022/06/19 14:23:20;;;;;;;;;;;20.20;99.90;;;;;;5091468;28;19915;-57
2022/06/19 14:25:58;;;;;;;;;;;19.90;99.90;;;;;;5090161;28;19943;-58
2022/06/19 14:28:38;;;;;;;;;;;19.80;99.90;;;;;;5090701;28;20294;-58
2022/06/19 14:31:06;;;;;;;;;;;19.40;99.90;;;;;;5087196;28;19908;-58
2022/06/19 14:33:40;;;;;;;;;;;19.30;99.90;;;;;;5097075;28;20300;-58
2022/06/19 14:36:17;;;;;;;;;;;19.40;99.90;;;;;;5090545;28;19912;-58
2022/06/19 14:38:43;;;;;;;;;;;19.40;99.90;;;;;;5089077;28;20268;-58